CDT,Max TemperatureF,Mean TemperatureF,Min TemperatureF,Max Dew PointF,MeanDew PointF,Min DewpointF,Max Humidity, Mean Humidity, Min Humidity, Max Sea Level PressureIn, Mean Sea Level PressureIn, Min Sea Level PressureIn, Max VisibilityMiles, Mean VisibilityMiles, Min VisibilityMiles, Max Wind SpeedMPH, Mean Wind SpeedMPH, Max Gust SpeedMPH,PrecipitationIn, CloudCover, Events, WindDirDegrees
2013-10-1,79,70,60,66,64,60,100,87,60,30.02,29.98,29.93,10,7,3,16,11,20,0.00,5,,206
2013-10-2,81,72,65,68,67,65,100,92,60,30.10,30.03,29.98,10,4,0,13,8,,0.00,4,Fog,187
2013-10-3,83,73,64,70,66,62,100,92,56,29.99,29.95,29.86,10,5,0,31,11,41,1.80,6,Rain-Thunderstorm,208
2013-10-4,86,74,65,70,67,63,100,81,51,30.01,29.95,29.90,10,9,4,14,10,,0.00,2,,188
2013-10-5,81,70,59,72,67,55,100,88,58,29.96,29.88,29.80,10,8,3,14,10,21,0.08,5,Rain-Thunderstorm,218
2013-10-6,59,52,45,55,44,37,93,77,46,29.85,29.82,29.77,10,10,6,22,11,26,0.01,5,Rain,252
2013-10-7,68,56,43,49,45,42,100,80,43,30.13,29.97,29.83,10,9,2,14,9,,0.00,4,,264
2013-10-8,75,60,46,50,46,43,89,62,31,30.22,30.17,30.13,10,10,10,10,7,,0.00,0,,188
2013-10-9,74,58,43,47,44,41,97,61,30,30.24,30.18,30.14,10,10,10,10,7,,0.00,0,,133
2013-10-10,77,64,50,59,52,46,90,70,43,30.18,30.11,30.04,10,10,10,10,6,,0.00,2,,169
2013-10-11,99,67,57,59,55,54,87,69,43,30.07,30.01,29.94,10,10,10,17,11,24,0.00,3,,165
2013-10-12,73,64,52,63,55,40,94,75,51,30.22,30.05,29.97,10,8,1,13,11,16,0.09,3,Rain,227
2013-10-13,68,58,43,41,35,26,68,48,22,30.41,30.35,30.23,10,10,10,10,7,16,0.00,0,,342
2013-10-14,68,52,36,44,37,33,93,61,27,30.41,30.29,30.11,10,10,10,16,7,20,0.00,0,Rain,104
2013-10-15,65,59,52,64,54,43,100,82,58,30.08,29.93,29.84,10,7,1,20,14,28,0.14,4,Rain,194
2013-10-16,54,50,45,43,42,39,86,75,64,30.01,29.97,29.94,10,10,10,14,9,21,0.00,7,,258
2013-10-17,59,51,43,46,42,36,100,78,42,29.98,29.94,29.89,10,9,3,13,7,17,0.05,5,Rain,247
2013-10-18,54,46,41,42,39,37,93,77,55,30.04,29.99,29.92,10,10,5,14,9,20,0.00,4,Rain,275
2013-10-19,54,46,39,43,38,32,100,80,45,29.99,29.94,29.89,10,9,4,18,9,23,0.09,5,Rain,246
2013-10-20,68,52,37,44,40,36,93,63,33,29.93,29.87,29.78,10,10,10,26,14,32,0.00,2,,211
2013-10-21,54,43,32,44,33,23,83,63,39,30.07,29.98,29.86,10,10,10,17,11,,0.00,2,,282
2013-10-22,43,37,30,41,34,24,100,88,73,30.06,29.97,29.85,10,7,3,18,8,24,0.54,6,Rain-Snow,128
2013-10-23,45,38,34,36,32,26,100,80,50,30.12,30.05,29.95,10,9,5,17,11,22,0.00,7,,298
2013-10-24,41,36,32,35,28,22,96,72,49,30.40,30.21,30.07,10,9,4,21,11,28,0.00,7,Rain-Snow,294
2013-10-25,52,39,26,30,26,22,92,62,32,30.50,30.38,30.18,10,10,10,18,9,25,0.00,0,,233
2013-10-26,56,46,36,35,30,27,74,56,36,30.14,30.06,29.97,10,10,10,24,17,29,0.00,2,,261
2013-10-27,55,42,30,31,28,27,89,62,36,30.14,30.09,30.04,10,10,3,13,7,,0.00,0,,235
2013-10-28,63,48,32,40,32,27,96,61,29,30.33,30.24,30.11,10,10,7,9,5,,0.00,0,Rain,133
2013-10-29,55,44,34,52,45,35,100,91,55,30.34,30.23,30.14,10,4,1,12,9,,0.02,4,Rain,115
2013-10-30,65,58,51,65,59,52,100,100,100,30.13,29.99,29.81,7,2,0,28,11,32,1.23,8,Fog-Rain-Thunderstorm,164
2013-10-31,63,55,45,64,58,43,100,99,87,29.81,29.54,29.30,10,6,1,29,21,36,0.90,7,Rain,232